Página principal
METAR-TAF:

METAR-TAF

Aeroportos :

Kuwait, Kuwait

Aeroporto Internacional do Kuwait

latitude: 29-13N, longitude: 047-59E, altura: 55 m

Observação actual do tempo

O boletim foi feito há 34 minutos, às 23:00 UTC
Vento 3 kt de oes-sudoeste
Temperatura 20°C
Humidade 26%
Pressão 1014 hPa
Visibilidade 10 km ou mais
sem nuvens abaixo de 1500 metros e sem cumulonimbus

METAR: OKBK 192300Z 25003KT CAVOK 20/00 Q1014 NOSIG

Hora: 02:34 (23:34 UTC)

Previsão

O boletim foi feito há 6 horas e 49 minutos, às 16:45 UTC
Previsão válida de 19 às 18 UTC a 20 às 24 UTC
Vento 3 kt com direcção variável
Visibilidade 10 km ou mais
sem nuvens abaixo de 1500 metros e sem cumulonimbus
Temporariamente
de 20 às 05 UTC a 20 às 12 UTC
Vento 12 kt de norte

TAF: OKBK 191645Z 1918/2024 VRB03KT CAVOK TEMPO 2005/2012 36012KT

Observações e previsões do tempo de mais de 4000 aeroportos (mensagens METAR e TAF).

As estações disponíveis são os pontos amarelos e vermelhos sobre o mapa.

Mova o rato sobre o mapa para ver o nome da estação.

Depois clique no ponto para visualizar as observações e previsões meteorológicas.

Para alterar o mapa : clique nos botões verdes com uma cruz preta para aumentar o zoom; no botão verde com uma pitada de zoom; ou nas setas verdes para mapas adjacentes.


METAR-TAF: